createdAt,value
2019-04-16T00:02:24.345Z,57.40
2019-04-16T00:05:15.783Z,57.40
2019-04-16T00:08:19.387Z,57.40
2019-04-16T00:10:48.469Z,57.40
2019-04-16T00:13:20.621Z,57.40
2019-04-16T00:15:50.201Z,57.40
2019-04-16T00:18:19.526Z,57.40
2019-04-16T00:20:59.187Z,57.40
2019-04-16T00:23:39.014Z,57.50
2019-04-16T00:26:07.998Z,57.40
2019-04-16T00:28:36.848Z,57.40
2019-04-16T00:31:06.415Z,57.50
2019-04-16T00:33:36.101Z,57.60
2019-04-16T00:36:05.881Z,57.60
2019-04-16T00:38:40.889Z,57.50
2019-04-16T00:41:07.096Z,57.50
2019-04-16T00:43:37.914Z,57.60
2019-04-16T00:46:11.474Z,57.60
2019-04-16T00:48:42.144Z,57.70
2019-04-16T00:51:14.928Z,57.70
2019-04-16T00:53:44.765Z,57.80
2019-04-16T00:56:16.222Z,57.90
2019-04-16T00:58:45.537Z,57.80
2019-04-16T01:01:15.107Z,57.80
2019-04-16T01:03:46.806Z,57.80
2019-04-16T01:06:16.605Z,57.90
2019-04-16T01:08:54.432Z,58.00
2019-04-16T01:11:17.478Z,58.00
2019-04-16T01:13:47.735Z,58.00
2019-04-16T01:16:18.225Z,58.00
2019-04-16T01:18:48.000Z,58.00
2019-04-16T01:21:21.007Z,58.00
2019-04-16T01:23:50.476Z,58.10
2019-04-16T01:26:20.151Z,58.10
2019-04-16T01:29:04.152Z,58.10
2019-04-16T01:32:12.052Z,58.10
2019-04-16T01:35:00.489Z,58.20
2019-04-16T01:37:56.820Z,57.80
2019-04-16T01:40:47.316Z,58.20
2019-04-16T01:43:16.811Z,58.20
2019-04-16T01:45:46.971Z,58.30
2019-04-16T01:48:16.756Z,58.20
2019-04-16T01:50:46.582Z,58.40
2019-04-16T01:53:18.368Z,58.30
2019-04-16T01:55:47.381Z,58.30
2019-04-16T01:58:17.018Z,58.40
2019-04-16T02:00:49.434Z,58.40
2019-04-16T02:03:18.644Z,58.50
2019-04-16T02:05:49.449Z,58.40
2019-04-16T02:08:20.645Z,58.50
2019-04-16T02:10:50.106Z,58.50
2019-04-16T02:13:20.298Z,58.50
2019-04-16T02:15:50.671Z,58.40
2019-04-16T02:18:21.624Z,58.40
2019-04-16T02:20:51.306Z,58.40
2019-04-16T02:23:22.196Z,58.50
2019-04-16T02:25:52.004Z,58.50
2019-04-16T02:28:22.584Z,58.50
2019-04-16T02:30:52.251Z,58.50
2019-04-16T02:33:21.985Z,58.50
2019-04-16T02:35:52.062Z,58.50
2019-04-16T02:38:21.723Z,58.50
2019-04-16T02:40:53.119Z,58.50
2019-04-16T02:43:22.778Z,58.60
2019-04-16T02:45:56.813Z,58.60
2019-04-16T02:48:23.421Z,58.60
2019-04-16T02:50:56.533Z,58.60
2019-04-16T02:53:44.034Z,58.70
2019-04-16T02:56:51.412Z,58.70
2019-04-16T02:59:23.208Z,58.70
2019-04-16T03:02:23.043Z,58.70
2019-04-16T03:05:01.154Z,58.70
2019-04-16T03:07:32.828Z,58.70
2019-04-16T03:10:02.792Z,58.70
2019-04-16T03:12:33.391Z,58.70
2019-04-16T03:15:02.881Z,58.80
2019-04-16T03:17:35.947Z,58.80
2019-04-16T03:20:06.670Z,58.70
2019-04-16T03:22:36.290Z,58.70
2019-04-16T03:25:12.363Z,58.80
2019-04-16T03:27:38.035Z,58.70
2019-04-16T03:30:08.130Z,58.80
2019-04-16T03:32:51.075Z,58.80
2019-04-16T03:35:25.422Z,58.90
2019-04-16T03:37:51.977Z,58.90
2019-04-16T03:40:24.617Z,58.90
2019-04-16T03:42:52.462Z,59.50
2019-04-16T03:45:22.172Z,58.90
2019-04-16T03:47:52.375Z,59.00
2019-04-16T03:50:22.131Z,58.90
2019-04-16T03:52:53.225Z,58.90
2019-04-16T03:55:26.282Z,59.00
2019-04-16T03:57:54.659Z,59.00
2019-04-16T04:00:24.399Z,59.00
2019-04-16T04:02:55.406Z,59.10
2019-04-16T04:05:25.729Z,59.00
2019-04-16T04:07:55.751Z,59.10
2019-04-16T04:10:30.987Z,59.10
2019-04-16T04:12:56.100Z,59.30
2019-04-16T04:15:27.109Z,59.30
2019-04-16T04:17:57.122Z,59.30
2019-04-16T04:20:29.865Z,59.40
2019-04-16T04:22:59.561Z,59.20
2019-04-16T04:25:30.070Z,59.20
2019-04-16T04:27:59.474Z,59.20
2019-04-16T04:30:29.656Z,59.30
2019-04-16T04:32:59.548Z,59.30
2019-04-16T04:35:28.889Z,59.30
2019-04-16T04:38:02.677Z,59.40
2019-04-16T04:40:43.494Z,59.30
2019-04-16T04:43:01.739Z,59.40
2019-04-16T04:45:32.020Z,59.30
2019-04-16T04:48:01.389Z,59.30
2019-04-16T04:50:32.463Z,59.90
2019-04-16T04:53:02.106Z,59.20
2019-04-16T04:55:35.231Z,59.30
2019-04-16T04:58:04.506Z,59.30
2019-04-16T05:00:33.474Z,59.30
2019-04-16T05:03:02.872Z,59.30
2019-04-16T05:05:42.945Z,59.40
2019-04-16T05:08:18.213Z,59.40
2019-04-16T05:10:58.387Z,59.40
2019-04-16T05:13:23.896Z,60.00
2019-04-16T05:15:53.858Z,59.30
2019-04-16T05:18:23.495Z,59.30
2019-04-16T05:20:54.146Z,59.30
2019-04-16T05:23:28.795Z,59.30
2019-04-16T05:25:58.640Z,59.20
2019-04-16T05:28:28.893Z,59.20
2019-04-16T05:31:00.443Z,59.30
2019-04-16T05:33:29.997Z,59.20
2019-04-16T05:36:02.686Z,59.20
2019-04-16T05:38:32.753Z,59.00
2019-04-16T05:41:13.049Z,59.10
2019-04-16T05:43:36.834Z,59.10
2019-04-16T05:46:08.948Z,59.10
2019-04-16T05:48:36.893Z,59.00
2019-04-16T05:51:06.121Z,59.00
2019-04-16T05:53:40.175Z,58.90
2019-04-16T05:56:34.118Z,58.80
2019-04-16T05:59:03.408Z,58.80
2019-04-16T06:01:42.467Z,58.80
2019-04-16T06:04:12.910Z,58.70
2019-04-16T06:06:42.143Z,58.60
2019-04-16T06:09:12.347Z,58.50
2019-04-16T06:11:42.568Z,58.50
2019-04-16T06:14:25.723Z,58.30
2019-04-16T06:17:12.948Z,58.30
2019-04-16T06:19:57.274Z,58.20
2019-04-16T06:22:32.199Z,58.30
2019-04-16T06:25:19.373Z,58.20
2019-04-16T06:28:08.487Z,58.20
2019-04-16T06:30:51.518Z,58.20
2019-04-16T06:33:42.389Z,58.10
2019-04-16T06:36:33.950Z,58.20
2019-04-16T06:39:22.220Z,58.10
2019-04-16T06:42:06.503Z,58.10
2019-04-16T06:44:42.903Z,58.00
2019-04-16T06:47:43.089Z,57.90
2019-04-16T06:50:39.520Z,57.90
2019-04-16T06:53:26.566Z,57.80
2019-04-16T06:56:20.721Z,57.80
2019-04-16T06:59:11.451Z,56.90
2019-04-16T07:01:58.728Z,56.90
2019-04-16T07:04:45.418Z,56.90
2019-04-16T07:07:46.206Z,56.80
2019-04-16T07:10:16.813Z,56.70
2019-04-16T07:12:45.884Z,56.70
2019-04-16T07:15:14.926Z,56.80
2019-04-16T07:17:44.190Z,56.80
2019-04-16T07:20:14.279Z,56.80
2019-04-16T07:22:43.459Z,57.20
2019-04-16T07:25:12.864Z,56.70
2019-04-16T07:28:01.083Z,56.70
2019-04-16T07:30:38.407Z,56.60
2019-04-16T07:33:25.334Z,56.40
2019-04-16T07:36:12.697Z,56.60
2019-04-16T07:41:47.467Z,56.40
2019-04-16T07:44:39.317Z,56.50
2019-04-16T07:47:19.651Z,56.70
2019-04-16T07:49:51.080Z,56.60
2019-04-16T07:52:45.531Z,56.50
2019-04-16T07:55:49.660Z,56.60
2019-04-16T07:58:19.267Z,56.30
2019-04-16T08:00:49.553Z,56.20
2019-04-16T08:03:19.555Z,56.20
2019-04-16T08:05:49.914Z,56.00
2019-04-16T08:08:24.371Z,55.70
2019-04-16T08:10:51.131Z,55.60
2019-04-16T08:13:21.102Z,55.20
2019-04-16T08:15:50.300Z,55.50
2019-04-16T08:18:21.254Z,55.40
2019-04-16T08:21:01.217Z,55.70
2019-04-16T08:23:39.606Z,55.80
2019-04-16T08:26:13.083Z,55.80
2019-04-16T08:28:40.685Z,55.70
2019-04-16T08:31:14.360Z,55.90
2019-04-16T08:33:43.363Z,55.70
2019-04-16T08:36:12.663Z,55.70
2019-04-16T08:38:41.540Z,55.60
2019-04-16T08:41:12.767Z,55.60
2019-04-16T08:43:41.823Z,55.50
2019-04-16T08:46:11.564Z,55.40
2019-04-16T08:48:41.066Z,55.40
2019-04-16T08:51:10.407Z,55.40
2019-04-16T08:53:39.394Z,55.70
2019-04-16T08:56:08.313Z,54.80
2019-04-16T08:58:38.553Z,54.60
2019-04-16T09:01:09.942Z,54.60
2019-04-16T09:03:38.915Z,54.70
2019-04-16T09:06:13.177Z,54.90
2019-04-16T09:09:14.008Z,54.90
2019-04-16T09:11:39.803Z,54.10
2019-04-16T09:14:08.862Z,54.40
2019-04-16T09:16:46.154Z,54.60
2019-04-16T09:19:16.661Z,54.70
2019-04-16T09:21:46.135Z,54.50
2019-04-16T09:24:40.462Z,54.20
2019-04-16T09:27:14.689Z,54.40
2019-04-16T09:30:01.464Z,54.00
2019-04-16T09:32:46.985Z,54.20
2019-04-16T09:35:50.465Z,53.90
2019-04-16T09:38:38.629Z,53.40
2019-04-16T09:41:32.958Z,53.10
2019-04-16T09:44:02.141Z,53.30
2019-04-16T09:46:50.392Z,53.40
2019-04-16T09:49:04.898Z,53.50
2019-04-16T09:51:33.128Z,53.70
2019-04-16T09:54:02.665Z,53.30
2019-04-16T09:56:32.529Z,53.10
2019-04-16T09:59:24.773Z,53.00
2019-04-16T10:02:02.058Z,52.30
2019-04-16T10:04:31.227Z,51.20
2019-04-16T10:07:00.422Z,51.10
2019-04-16T10:09:32.668Z,52.30
2019-04-16T10:12:04.947Z,52.30
2019-04-16T10:14:32.922Z,52.20
2019-04-16T10:17:02.400Z,52.40
2019-04-16T10:19:31.371Z,52.40
2019-04-16T10:22:00.937Z,52.50
2019-04-16T10:24:48.496Z,52.20
2019-04-16T10:27:31.282Z,52.40
2019-04-16T10:29:58.274Z,52.20
2019-04-16T10:32:28.671Z,52.10
2019-04-16T10:34:57.679Z,52.20
2019-04-16T10:37:26.807Z,52.40
2019-04-16T10:40:05.015Z,52.40
2019-04-16T10:43:00.298Z,52.30
2019-04-16T10:45:41.776Z,52.40
2019-04-16T10:48:32.171Z,52.10
2019-04-16T10:51:21.601Z,52.20
2019-04-16T10:54:13.138Z,51.70
2019-04-16T10:56:59.711Z,51.70
2019-04-16T10:59:46.592Z,51.80
2019-04-16T11:02:40.812Z,51.50
2019-04-16T11:05:22.476Z,51.70
2019-04-16T11:07:51.975Z,51.20
2019-04-16T11:10:21.709Z,51.00
2019-04-16T11:12:50.888Z,51.20
2019-04-16T11:15:22.604Z,51.10
2019-04-16T11:17:51.559Z,50.80
2019-04-16T11:20:20.520Z,51.10
2019-04-16T11:22:49.785Z,50.90
2019-04-16T11:25:18.994Z,49.80
2019-04-16T11:27:48.274Z,49.10
2019-04-16T11:30:39.178Z,49.60
2019-04-16T11:33:08.516Z,50.40
2019-04-16T11:35:38.024Z,49.70
2019-04-16T11:38:07.126Z,49.40
2019-04-16T11:40:40.728Z,48.70
2019-04-16T11:43:08.278Z,48.90
2019-04-16T11:45:37.250Z,48.70
2019-04-16T11:48:06.338Z,48.50
2019-04-16T11:50:36.378Z,48.90
2019-04-16T11:53:06.182Z,48.80
2019-04-16T11:55:36.766Z,48.60
2019-04-16T12:00:56.432Z,48.80
2019-04-16T12:03:45.734Z,49.60
2019-04-16T12:06:28.763Z,48.90
2019-04-16T12:09:17.472Z,49.00
2019-04-16T12:11:56.413Z,48.70
2019-04-16T12:14:48.551Z,48.70
2019-04-16T12:17:43.932Z,47.50
2019-04-16T12:20:46.319Z,47.80
2019-04-16T12:23:44.087Z,47.50
2019-04-16T12:26:32.274Z,47.60
2019-04-16T12:29:23.177Z,48.20
2019-04-16T12:32:05.236Z,48.30
2019-04-16T12:34:54.208Z,48.50
2019-04-16T12:37:45.556Z,48.60
2019-04-16T12:40:46.772Z,48.30
2019-04-16T12:43:26.305Z,48.20
2019-04-16T12:46:13.713Z,48.40
2019-04-16T12:49:07.305Z,48.30
2019-04-16T12:51:55.615Z,48.50
2019-04-16T12:54:42.454Z,48.50
2019-04-16T12:57:28.979Z,48.70
2019-04-16T13:00:17.498Z,48.10
2019-04-16T13:03:17.554Z,48.00
2019-04-16T13:06:02.495Z,48.40
2019-04-16T13:08:57.172Z,48.70
2019-04-16T13:11:43.852Z,48.30
2019-04-16T13:14:32.011Z,48.40
2019-04-16T13:17:23.188Z,48.50
2019-04-16T13:20:05.653Z,48.60
2019-04-16T13:22:42.393Z,48.30
2019-04-16T13:25:18.460Z,48.40
2019-04-16T13:27:47.838Z,48.10
2019-04-16T13:30:18.363Z,48.50
2019-04-16T13:32:47.758Z,48.30
2019-04-16T13:35:16.851Z,48.80
2019-04-16T13:37:45.773Z,48.70
2019-04-16T13:40:16.538Z,47.90
2019-04-16T13:42:45.826Z,48.10
2019-04-16T13:45:36.217Z,47.90
2019-04-16T13:48:16.438Z,48.10
2019-04-16T13:50:57.123Z,48.30
2019-04-16T13:53:54.613Z,48.50
2019-04-16T13:56:29.689Z,48.70
2019-04-16T13:59:30.181Z,48.60
2019-04-16T14:02:22.911Z,48.50
2019-04-16T14:04:52.127Z,48.30
2019-04-16T14:07:21.194Z,48.00
2019-04-16T14:09:50.618Z,48.10
2019-04-16T14:12:24.481Z,48.10
2019-04-16T14:14:50.360Z,48.30
2019-04-16T14:17:23.508Z,47.80
2019-04-16T14:19:52.563Z,48.30
2019-04-16T14:22:22.498Z,48.20
2019-04-16T14:24:51.667Z,47.90
2019-04-16T14:27:20.871Z,48.30
2019-04-16T14:29:50.164Z,48.30
2019-04-16T14:32:18.995Z,47.80
2019-04-16T14:35:05.237Z,48.00
2019-04-16T14:37:34.550Z,48.20
2019-04-16T14:40:25.404Z,47.20
2019-04-16T14:42:57.574Z,47.50
2019-04-16T14:45:57.384Z,47.40
2019-04-16T14:48:14.505Z,47.50
2019-04-16T14:50:43.644Z,47.50
2019-04-16T14:53:16.351Z,47.40
2019-04-16T14:55:59.682Z,47.80
2019-04-16T14:58:28.224Z,47.60
2019-04-16T15:01:14.906Z,48.10
2019-04-16T15:04:01.852Z,47.70
2019-04-16T15:06:52.911Z,48.10
2019-04-16T15:09:25.721Z,48.10
2019-04-16T15:12:25.822Z,47.80
2019-04-16T15:15:16.936Z,47.90
2019-04-16T15:17:48.732Z,48.00
2019-04-16T15:20:40.132Z,48.20
2019-04-16T15:23:26.611Z,48.80
2019-04-16T15:26:15.100Z,48.90
2019-04-16T15:28:51.761Z,47.00
2019-04-16T15:31:43.089Z,48.10
2019-04-16T15:34:15.545Z,48.40
2019-04-16T15:36:55.066Z,48.20
2019-04-16T15:39:35.376Z,48.20
2019-04-16T15:42:18.453Z,48.50
2019-04-16T15:45:01.304Z,48.50
2019-04-16T15:48:04.489Z,48.30
2019-04-16T15:50:55.074Z,48.40
2019-04-16T15:53:47.773Z,48.70
2019-04-16T15:56:34.448Z,49.10
2019-04-16T15:59:12.253Z,48.80
2019-04-16T16:02:03.720Z,49.20
2019-04-16T16:04:55.417Z,48.80
2019-04-16T16:07:27.420Z,49.00
2019-04-16T16:12:40.426Z,49.00
2019-04-16T16:15:10.462Z,48.50
2019-04-16T16:17:39.461Z,48.50
2019-04-16T16:20:10.305Z,48.50
2019-04-16T16:22:39.808Z,48.90
2019-04-16T16:25:14.077Z,49.30
2019-04-16T16:27:46.973Z,49.50
2019-04-16T16:30:15.020Z,49.50
2019-04-16T16:32:44.718Z,49.50
2019-04-16T16:35:16.982Z,50.20
2019-04-16T16:37:44.659Z,50.30
2019-04-16T16:40:15.293Z,50.70
2019-04-16T16:42:44.364Z,51.00
2019-04-16T16:45:13.723Z,51.40
2019-04-16T16:47:43.022Z,51.60
2019-04-16T16:50:14.963Z,51.70
2019-04-16T16:53:01.601Z,51.60
2019-04-16T16:55:43.523Z,51.80
2019-04-16T16:58:34.698Z,52.00
2019-04-16T17:01:21.564Z,52.60
2019-04-16T17:03:55.243Z,53.10
2019-04-16T17:06:24.588Z,52.80
2019-04-16T17:08:53.515Z,53.30
2019-04-16T17:11:22.793Z,53.50
2019-04-16T17:13:52.003Z,53.60
2019-04-16T17:16:21.362Z,53.80
2019-04-16T17:18:50.358Z,53.90
2019-04-16T17:21:19.703Z,54.10
2019-04-16T17:23:48.667Z,54.70
2019-04-16T17:26:17.626Z,54.70
2019-04-16T17:28:46.664Z,55.60
2019-04-16T17:31:16.083Z,55.70
2019-04-16T17:33:45.362Z,56.20
2019-04-16T17:36:14.582Z,57.00
2019-04-16T17:38:43.506Z,57.20
2019-04-16T17:41:15.714Z,57.60
2019-04-16T17:44:00.433Z,57.90
2019-04-16T17:46:40.307Z,58.30
2019-04-16T17:49:16.846Z,58.30
2019-04-16T17:52:00.905Z,58.40
2019-04-16T17:54:37.416Z,58.60
2019-04-16T17:57:28.927Z,58.70
2019-04-16T18:00:06.907Z,58.70
2019-04-16T18:02:53.083Z,58.70
2019-04-16T18:05:28.797Z,58.50
2019-04-16T18:08:21.727Z,58.60
2019-04-16T18:11:10.016Z,58.70
2019-04-16T18:13:50.453Z,58.50
2019-04-16T18:16:36.216Z,58.60
2019-04-16T18:19:11.420Z,58.70
2019-04-16T18:21:45.522Z,58.80
2019-04-16T18:24:33.647Z,58.80
2019-04-16T18:27:29.185Z,58.90
2019-04-16T18:30:26.203Z,59.10
2019-04-16T18:33:14.891Z,59.20
2019-04-16T18:35:54.670Z,59.20
2019-04-16T18:38:45.639Z,59.40
2019-04-16T18:41:32.627Z,59.60
2019-04-16T18:44:19.894Z,59.70
2019-04-16T18:47:14.290Z,59.60
2019-04-16T18:49:44.083Z,59.80
2019-04-16T18:52:12.940Z,59.90
2019-04-16T18:54:41.959Z,60.00
2019-04-16T18:57:10.983Z,59.90
2019-04-16T18:59:39.893Z,60.00
2019-04-16T19:02:10.531Z,60.20
2019-04-16T19:04:39.630Z,60.20
2019-04-16T19:07:11.244Z,60.30
2019-04-16T19:09:40.176Z,60.40
2019-04-16T19:12:09.228Z,60.50
2019-04-16T19:14:38.264Z,60.70
2019-04-16T19:17:08.155Z,60.90
2019-04-16T19:19:36.977Z,60.90
2019-04-16T19:22:07.933Z,60.90
2019-04-16T19:24:37.275Z,60.80
2019-04-16T19:27:06.894Z,61.00
2019-04-16T19:29:38.121Z,61.00
2019-04-16T19:32:08.030Z,61.20
2019-04-16T19:34:40.955Z,61.30
2019-04-16T19:37:08.623Z,61.30
2019-04-16T19:39:37.563Z,61.50
2019-04-16T19:42:06.681Z,61.60
2019-04-16T19:44:39.678Z,61.70
2019-04-16T19:47:06.809Z,61.70
2019-04-16T19:49:36.243Z,62.00
2019-04-16T19:52:05.470Z,62.00
2019-04-16T19:54:35.289Z,62.20
2019-04-16T19:57:04.313Z,62.50
2019-04-16T19:59:33.242Z,62.40
2019-04-16T20:02:02.420Z,62.60
2019-04-16T20:04:31.390Z,62.70
2019-04-16T20:07:01.910Z,62.90
